createdAt,value
2019-02-19T00:01:06.741Z,19.02
2019-02-19T00:03:33.922Z,18.99
2019-02-19T00:06:09.228Z,19.00
2019-02-19T00:08:36.519Z,19.00
2019-02-19T00:11:03.682Z,18.99
2019-02-19T00:13:30.852Z,18.97
2019-02-19T00:15:58.053Z,18.94
2019-02-19T00:18:25.214Z,18.91
2019-02-19T00:20:52.404Z,18.90
2019-02-19T00:23:19.609Z,18.88
2019-02-19T00:25:47.002Z,18.88
2019-02-19T00:28:14.189Z,18.93
2019-02-19T00:30:41.353Z,19.04
2019-02-19T00:33:08.677Z,19.10
2019-02-19T00:35:35.837Z,19.10
2019-02-19T00:38:03.021Z,19.12
2019-02-19T00:40:30.234Z,19.14
2019-02-19T00:42:57.507Z,19.12
2019-02-19T00:45:24.681Z,19.06
2019-02-19T00:47:51.939Z,19.01
2019-02-19T00:50:19.101Z,19.00
2019-02-19T00:52:46.453Z,19.02
2019-02-19T00:55:13.615Z,19.00
2019-02-19T00:57:40.774Z,18.97
2019-02-19T01:00:08.808Z,18.96
2019-02-19T01:02:36.007Z,18.93
2019-02-19T01:05:03.302Z,18.91
2019-02-19T01:07:30.504Z,18.91
2019-02-19T01:09:57.676Z,18.89
2019-02-19T01:12:24.891Z,18.88
2019-02-19T01:14:52.226Z,18.87
2019-02-19T01:17:19.424Z,18.87
2019-02-19T01:19:46.689Z,18.86
2019-02-19T01:22:13.898Z,18.85
2019-02-19T01:24:41.051Z,18.80
2019-02-19T01:27:08.553Z,18.76
2019-02-19T01:29:35.738Z,18.71
2019-02-19T01:32:03.090Z,18.71
2019-02-19T01:34:30.269Z,18.72
2019-02-19T01:36:57.481Z,18.80
2019-02-19T01:39:24.707Z,18.82
2019-02-19T01:41:52.011Z,18.82
2019-02-19T01:44:19.219Z,18.79
2019-02-19T01:46:46.403Z,18.79
2019-02-19T01:49:13.598Z,18.78
2019-02-19T01:51:40.789Z,18.77
2019-02-19T01:54:07.959Z,18.73
2019-02-19T01:56:35.399Z,18.70
2019-02-19T01:59:02.595Z,18.71
2019-02-19T02:01:29.792Z,18.71
2019-02-19T02:03:57.015Z,18.72
2019-02-19T02:06:24.238Z,18.73
2019-02-19T02:08:51.431Z,18.72
2019-02-19T02:11:18.622Z,18.82
2019-02-19T02:13:45.879Z,18.89
2019-02-19T02:16:13.071Z,18.90
2019-02-19T02:18:40.225Z,18.91
2019-02-19T02:21:07.434Z,18.87
2019-02-19T02:23:34.657Z,18.87
2019-02-19T02:26:01.847Z,18.86
2019-02-19T02:28:29.234Z,18.87
2019-02-19T02:30:56.501Z,18.89
2019-02-19T02:33:23.661Z,18.90
2019-02-19T02:35:51.008Z,18.90
2019-02-19T02:38:18.213Z,18.90
2019-02-19T02:40:45.451Z,18.88
2019-02-19T02:43:12.626Z,18.86
2019-02-19T02:45:39.801Z,18.86
2019-02-19T02:48:06.983Z,18.84
2019-02-19T02:50:34.171Z,18.80
2019-02-19T02:53:01.483Z,18.81
2019-02-19T02:55:28.668Z,18.83
2019-02-19T02:57:55.957Z,18.84
2019-02-19T03:00:23.158Z,18.83
2019-02-19T03:02:50.314Z,18.84
2019-02-19T03:05:17.584Z,18.81
2019-02-19T03:07:50.938Z,18.82
2019-02-19T03:10:18.102Z,18.82
2019-02-19T03:12:45.440Z,18.79
2019-02-19T03:15:12.975Z,18.77
2019-02-19T03:17:40.188Z,18.72
2019-02-19T03:20:07.338Z,18.73
2019-02-19T03:22:34.629Z,18.74
2019-02-19T03:25:01.909Z,18.75
2019-02-19T03:27:29.084Z,18.74
2019-02-19T03:29:56.316Z,18.72
2019-02-19T03:32:23.486Z,18.73
2019-02-19T03:34:50.788Z,18.75
2019-02-19T03:37:17.976Z,18.80
2019-02-19T03:39:45.163Z,18.80
2019-02-19T03:42:12.383Z,18.79
2019-02-19T03:44:39.964Z,18.79
2019-02-19T03:47:07.213Z,18.77
2019-02-19T03:49:34.423Z,18.75
2019-02-19T03:52:01.759Z,18.72
2019-02-19T03:54:28.946Z,18.73
2019-02-19T03:56:56.144Z,18.74
2019-02-19T03:59:23.428Z,18.70
2019-02-19T04:01:50.855Z,18.72
2019-02-19T04:04:18.167Z,18.62
2019-02-19T04:06:47.288Z,18.57
2019-02-19T04:09:14.571Z,18.51
2019-02-19T04:11:41.847Z,18.49
2019-02-19T04:14:09.033Z,18.52
2019-02-19T04:16:36.263Z,18.48
2019-02-19T04:19:03.555Z,18.56
2019-02-19T04:21:30.730Z,18.65
2019-02-19T04:23:57.942Z,18.68
2019-02-19T04:26:25.502Z,18.67
2019-02-19T04:28:52.854Z,18.72
2019-02-19T04:31:20.164Z,18.75
2019-02-19T04:33:47.353Z,18.63
2019-02-19T04:36:14.522Z,18.61
2019-02-19T04:38:41.697Z,18.62
2019-02-19T04:41:08.992Z,18.62
2019-02-19T04:43:36.182Z,18.57
2019-02-19T04:46:03.439Z,18.59
2019-02-19T04:48:30.636Z,18.53
2019-02-19T04:50:57.825Z,18.50
2019-02-19T04:53:24.997Z,18.48
2019-02-19T04:55:52.182Z,18.46
2019-02-19T04:58:19.416Z,18.43
2019-02-19T05:00:46.578Z,18.44
2019-02-19T05:03:13.753Z,18.41
2019-02-19T05:05:41.039Z,18.42
2019-02-19T05:08:08.234Z,18.43
2019-02-19T05:10:35.371Z,18.41
2019-02-19T05:13:02.692Z,18.42
2019-02-19T05:15:29.881Z,18.43
2019-02-19T05:17:57.072Z,18.43
2019-02-19T05:20:24.291Z,18.42
2019-02-19T05:22:51.554Z,18.42
2019-02-19T05:25:18.756Z,18.44
2019-02-19T05:27:45.935Z,18.49
2019-02-19T05:30:13.163Z,18.51
2019-02-19T05:32:40.342Z,18.48
2019-02-19T05:35:07.521Z,18.48
2019-02-19T05:37:34.723Z,18.48
2019-02-19T05:40:01.880Z,18.51
2019-02-19T05:42:29.212Z,18.49
2019-02-19T05:44:56.554Z,18.51
2019-02-19T05:47:23.695Z,18.51
2019-02-19T05:49:51.003Z,18.54
2019-02-19T05:52:18.213Z,18.52
2019-02-19T05:54:45.501Z,18.58
2019-02-19T05:57:12.739Z,18.56
2019-02-19T05:59:39.942Z,18.49
2019-02-19T06:02:07.218Z,18.49
2019-02-19T06:04:34.442Z,18.47
2019-02-19T06:07:01.675Z,18.46
2019-02-19T06:09:29.042Z,18.45
2019-02-19T06:11:56.249Z,18.42
2019-02-19T06:14:23.410Z,18.44
2019-02-19T06:16:58.285Z,18.48
2019-02-19T06:19:19.751Z,18.48
2019-02-19T06:21:46.984Z,18.43
2019-02-19T06:24:14.414Z,18.38
2019-02-19T06:26:41.602Z,18.36
2019-02-19T06:29:08.797Z,18.38
2019-02-19T06:31:36.026Z,18.38
2019-02-19T06:34:03.207Z,18.41
2019-02-19T06:36:30.445Z,18.40
2019-02-19T06:38:57.678Z,18.41
2019-02-19T06:41:24.907Z,18.41
2019-02-19T06:43:52.190Z,18.41
2019-02-19T06:46:19.333Z,18.39
2019-02-19T06:48:46.533Z,18.39
2019-02-19T06:51:13.736Z,18.46
2019-02-19T06:53:41.007Z,18.48
2019-02-19T06:56:08.289Z,18.42
2019-02-19T06:58:35.535Z,18.35
2019-02-19T07:01:02.964Z,18.30
2019-02-19T07:03:36.949Z,18.28
2019-02-19T07:06:04.139Z,18.32
2019-02-19T07:08:31.403Z,18.39
2019-02-19T07:10:58.619Z,18.41
2019-02-19T07:13:25.882Z,18.40
2019-02-19T07:15:53.051Z,18.34
2019-02-19T07:18:21.189Z,18.33
2019-02-19T07:20:48.640Z,18.33
2019-02-19T07:23:15.953Z,18.39
2019-02-19T07:25:43.251Z,18.46
2019-02-19T07:28:10.457Z,18.44
2019-02-19T07:30:37.704Z,18.45
2019-02-19T07:33:04.875Z,18.43
2019-02-19T07:35:32.087Z,18.40
2019-02-19T07:37:59.329Z,18.35
2019-02-19T07:40:26.548Z,18.31
2019-02-19T07:42:53.812Z,18.30
2019-02-19T07:45:21.054Z,18.27
2019-02-19T07:47:48.320Z,18.25
2019-02-19T07:50:15.528Z,18.24
2019-02-19T07:52:42.686Z,18.24
2019-02-19T07:55:09.992Z,18.23
2019-02-19T07:57:37.216Z,18.23
2019-02-19T08:00:04.461Z,18.22
2019-02-19T08:02:31.673Z,18.24
2019-02-19T08:04:58.906Z,18.22
2019-02-19T08:07:26.292Z,18.22
2019-02-19T08:09:53.462Z,18.24
2019-02-19T08:12:20.680Z,18.23
2019-02-19T08:14:47.822Z,18.24
2019-02-19T08:17:15.078Z,18.22
2019-02-19T08:19:42.307Z,18.21
2019-02-19T08:22:09.567Z,18.22
2019-02-19T08:24:36.783Z,18.21
2019-02-19T08:27:04.055Z,18.28
2019-02-19T08:29:31.244Z,18.27
2019-02-19T08:31:58.421Z,18.30
2019-02-19T08:34:25.735Z,18.31
2019-02-19T08:36:52.956Z,18.33
2019-02-19T08:39:20.156Z,18.32
2019-02-19T08:41:47.314Z,18.35
2019-02-19T08:44:14.485Z,18.36
2019-02-19T08:46:41.737Z,18.41
2019-02-19T08:49:09.843Z,18.41
2019-02-19T08:51:37.041Z,18.40
2019-02-19T08:54:04.553Z,18.42
2019-02-19T08:56:31.760Z,18.40
2019-02-19T08:58:59.111Z,18.40
2019-02-19T09:01:26.428Z,18.36
2019-02-19T09:03:53.661Z,18.37
2019-02-19T09:06:20.860Z,18.38
2019-02-19T09:08:48.071Z,18.43
2019-02-19T09:11:15.545Z,18.47
2019-02-19T09:13:42.738Z,18.44
2019-02-19T09:16:10.089Z,18.43
2019-02-19T09:18:37.286Z,18.44
2019-02-19T09:21:04.459Z,18.43
2019-02-19T09:23:38.378Z,18.40
2019-02-19T09:26:06.005Z,18.46
2019-02-19T09:28:33.385Z,18.46
2019-02-19T09:31:00.721Z,18.49
2019-02-19T09:33:28.121Z,18.50
2019-02-19T09:35:55.350Z,18.54
2019-02-19T09:38:22.534Z,18.52
2019-02-19T09:40:49.802Z,18.53
2019-02-19T09:43:17.012Z,18.51
2019-02-19T09:45:44.256Z,18.54
2019-02-19T09:48:11.599Z,18.56
2019-02-19T09:50:38.763Z,18.56
2019-02-19T09:53:05.981Z,18.56
2019-02-19T09:55:33.179Z,18.58
2019-02-19T09:58:00.583Z,18.57
2019-02-19T10:00:27.934Z,18.59
2019-02-19T10:02:55.129Z,18.60
2019-02-19T10:05:22.338Z,18.61
2019-02-19T10:07:49.584Z,18.65
2019-02-19T10:10:17.031Z,18.66
2019-02-19T10:12:44.236Z,18.62
2019-02-19T10:15:11.896Z,18.57
2019-02-19T10:17:39.087Z,18.55
2019-02-19T10:20:06.978Z,18.56
2019-02-19T10:22:37.333Z,18.57
2019-02-19T10:25:05.642Z,18.60
2019-02-19T10:27:32.989Z,18.53
2019-02-19T10:30:00.202Z,18.50
2019-02-19T10:32:27.423Z,18.52
2019-02-19T10:34:54.677Z,18.51
2019-02-19T10:37:21.975Z,18.48
2019-02-19T10:39:49.356Z,18.48
2019-02-19T10:42:16.556Z,18.48
2019-02-19T10:44:43.725Z,18.47
2019-02-19T10:47:10.980Z,18.42
2019-02-19T10:49:38.175Z,18.38
2019-02-19T10:52:05.380Z,18.38
2019-02-19T10:54:32.663Z,18.37
2019-02-19T10:56:59.850Z,18.39
2019-02-19T10:59:27.205Z,18.36
2019-02-19T11:01:54.747Z,18.34
2019-02-19T11:04:21.969Z,18.32
2019-02-19T11:06:49.122Z,18.29
2019-02-19T11:09:16.407Z,18.26
2019-02-19T11:11:44.796Z,18.24
2019-02-19T11:14:12.173Z,18.26
2019-02-19T11:16:39.449Z,18.26
2019-02-19T11:19:06.806Z,18.29
2019-02-19T11:21:34.478Z,18.25
2019-02-19T11:24:01.892Z,18.24
2019-02-19T11:26:29.155Z,18.24
2019-02-19T11:28:56.472Z,18.28
2019-02-19T11:31:23.769Z,18.26
2019-02-19T11:33:55.292Z,18.25
2019-02-19T11:36:22.953Z,18.26
2019-02-19T11:38:50.755Z,18.27
2019-02-19T11:41:18.050Z,18.27
2019-02-19T11:43:45.372Z,18.27
2019-02-19T11:46:12.557Z,18.31
2019-02-19T11:48:39.770Z,18.32
2019-02-19T11:51:07.044Z,18.29
2019-02-19T11:53:34.350Z,18.28
2019-02-19T11:56:01.613Z,18.36
2019-02-19T11:58:28.886Z,18.45
2019-02-19T12:00:56.161Z,18.49
2019-02-19T12:03:23.501Z,18.57
2019-02-19T12:05:50.796Z,18.63
2019-02-19T12:08:18.082Z,18.67
2019-02-19T12:10:45.572Z,18.69
2019-02-19T12:13:12.901Z,18.72
2019-02-19T12:15:40.145Z,18.78
2019-02-19T12:18:07.457Z,18.80
2019-02-19T12:20:34.713Z,18.84
2019-02-19T12:23:01.939Z,18.84
2019-02-19T12:25:29.160Z,18.88
2019-02-19T12:27:57.651Z,18.88
2019-02-19T12:30:24.943Z,18.93
2019-02-19T12:32:52.259Z,18.98
2019-02-19T12:35:19.564Z,18.98
2019-02-19T12:37:47.132Z,19.00
2019-02-19T12:40:14.480Z,18.97
2019-02-19T12:42:41.809Z,18.99
2019-02-19T12:45:11.572Z,19.01
2019-02-19T12:47:38.892Z,19.00
2019-02-19T12:50:08.003Z,19.00
2019-02-19T12:52:35.440Z,19.01
2019-02-19T12:55:02.647Z,19.01
2019-02-19T12:57:30.075Z,18.99
2019-02-19T12:59:57.371Z,18.96
2019-02-19T13:02:24.643Z,18.89
2019-02-19T13:04:52.106Z,18.85
2019-02-19T13:07:21.391Z,18.81
2019-02-19T13:09:48.946Z,18.79
2019-02-19T13:12:21.625Z,18.79
2019-02-19T13:14:49.675Z,18.77
2019-02-19T13:17:16.855Z,18.75
2019-02-19T13:19:44.101Z,18.71
2019-02-19T13:22:11.269Z,18.68
2019-02-19T13:24:38.478Z,18.67
2019-02-19T13:27:06.046Z,18.66
2019-02-19T13:29:33.221Z,18.66
2019-02-19T13:32:00.491Z,18.61
2019-02-19T13:34:27.698Z,18.58
2019-02-19T13:36:55.119Z,18.54
2019-02-19T13:39:22.343Z,18.54
2019-02-19T13:41:49.593Z,18.54
2019-02-19T13:44:16.791Z,18.49
2019-02-19T13:46:44.110Z,18.46
2019-02-19T13:49:12.430Z,18.48
2019-02-19T13:51:39.831Z,18.46
2019-02-19T13:54:17.383Z,18.47
2019-02-19T13:56:44.600Z,18.49
2019-02-19T13:59:11.794Z,18.52
2019-02-19T14:01:38.973Z,18.52
2019-02-19T14:04:06.368Z,18.50
2019-02-19T14:06:33.570Z,18.50
2019-02-19T14:09:00.773Z,18.50
2019-02-19T14:11:28.189Z,18.51
2019-02-19T14:14:20.755Z,18.50
2019-02-19T14:16:52.246Z,18.51
2019-02-19T14:19:40.994Z,18.56
2019-02-19T14:22:26.493Z,18.58
2019-02-19T14:25:13.257Z,18.62
2019-02-19T14:28:02.799Z,18.62
2019-02-19T14:30:53.138Z,18.62
2019-02-19T14:33:29.295Z,18.58
2019-02-19T14:36:10.876Z,18.60
2019-02-19T14:39:03.437Z,18.63
2019-02-19T14:41:48.879Z,18.63
2019-02-19T14:44:34.500Z,18.63
2019-02-19T14:47:08.464Z,18.62
2019-02-19T14:50:07.465Z,18.62
2019-02-19T14:52:54.259Z,18.62
2019-02-19T14:55:41.039Z,18.57
2019-02-19T14:58:25.560Z,18.56
2019-02-19T15:01:21.778Z,18.53
2019-02-19T15:04:20.683Z,18.51
2019-02-19T15:07:13.583Z,18.51
2019-02-19T15:10:03.201Z,18.53
2019-02-19T15:12:58.962Z,18.50
2019-02-19T15:15:48.398Z,18.51
2019-02-19T15:18:33.739Z,18.50
2019-02-19T15:21:38.920Z,18.48
2019-02-19T15:24:25.770Z,18.49
2019-02-19T15:27:11.327Z,18.47
2019-02-19T15:29:56.885Z,18.46
2019-02-19T15:32:46.587Z,18.47
2019-02-19T15:35:45.295Z,18.43
2019-02-19T15:38:34.580Z,18.40
2019-02-19T15:41:27.404Z,18.36
2019-02-19T15:44:14.219Z,18.33
2019-02-19T15:47:03.831Z,18.35
2019-02-19T15:49:49.339Z,18.33
2019-02-19T15:52:35.236Z,18.29
2019-02-19T15:55:14.888Z,18.27
2019-02-19T15:57:48.475Z,18.26
2019-02-19T16:00:44.389Z,18.26
2019-02-19T16:03:19.713Z,18.24
2019-02-19T16:05:57.975Z,18.23
2019-02-19T16:08:40.198Z,18.22
2019-02-19T16:11:29.975Z,18.22
2019-02-19T16:14:16.602Z,18.21
2019-02-19T16:17:12.002Z,18.21
2019-02-19T16:19:46.874Z,18.20
2019-02-19T16:22:27.727Z,18.21
2019-02-19T16:25:13.211Z,18.22
2019-02-19T16:28:15.362Z,18.19
2019-02-19T16:31:00.925Z,18.20
2019-02-19T16:33:47.677Z,18.18
2019-02-19T16:36:35.033Z,18.16
2019-02-19T16:39:40.184Z,18.15
2019-02-19T16:42:27.094Z,18.15
2019-02-19T16:45:07.884Z,18.16
2019-02-19T16:47:45.078Z,18.16
2019-02-19T16:50:34.859Z,18.16
2019-02-19T16:53:10.967Z,18.16
2019-02-19T16:56:00.062Z,18.13
2019-02-19T16:58:35.294Z,18.11
2019-02-19T17:01:39.991Z,18.11
2019-02-19T17:04:17.467Z,18.12
2019-02-19T17:06:54.590Z,18.10
2019-02-19T17:09:38.886Z,18.04
2019-02-19T17:12:18.414Z,18.05
2019-02-19T17:15:01.476Z,18.00
2019-02-19T17:17:54.306Z,18.01
2019-02-19T17:20:44.134Z,18.01
2019-02-19T17:23:26.062Z,18.01
2019-02-19T17:26:21.754Z,18.05
2019-02-19T17:29:23.736Z,18.10
2019-02-19T17:32:17.647Z,18.19
2019-02-19T17:35:04.413Z,18.27
2019-02-19T17:37:53.884Z,18.45
2019-02-19T17:40:40.677Z,18.45
2019-02-19T17:43:31.628Z,18.53
2019-02-19T17:46:14.392Z,18.59
2019-02-19T17:49:01.164Z,18.69
2019-02-19T17:51:48.037Z,18.72
2019-02-19T17:54:39.693Z,18.80
2019-02-19T17:57:27.205Z,18.86
2019-02-19T18:00:14.195Z,18.90
2019-02-19T18:02:59.610Z,18.96
2019-02-19T18:05:46.075Z,18.94
2019-02-19T18:08:29.246Z,18.98
2019-02-19T18:11:14.768Z,18.91
2019-02-19T18:14:04.619Z,18.91
2019-02-19T18:16:54.192Z,18.91
2019-02-19T18:19:21.473Z,18.93
2019-02-19T18:21:48.679Z,18.93
2019-02-19T18:24:16.002Z,18.91
2019-02-19T18:26:44.746Z,18.92
2019-02-19T18:29:12.046Z,18.93
2019-02-19T18:31:39.271Z,18.93
2019-02-19T18:34:06.624Z,18.93
2019-02-19T18:36:33.839Z,18.90
2019-02-19T18:39:01.024Z,18.91
2019-02-19T18:41:28.314Z,18.89
2019-02-19T18:43:55.480Z,18.93
2019-02-19T18:46:22.703Z,18.90
2019-02-19T18:48:49.902Z,18.88
2019-02-19T18:51:17.122Z,18.90
2019-02-19T18:53:44.308Z,18.94
2019-02-19T18:56:11.509Z,18.91
2019-02-19T18:58:38.713Z,18.91
2019-02-19T19:01:05.880Z,18.94
2019-02-19T19:03:33.138Z,18.94
2019-02-19T19:06:00.335Z,18.98
2019-02-19T19:08:27.570Z,18.98
2019-02-19T19:10:54.773Z,18.97
2019-02-19T19:13:22.038Z,18.99
2019-02-19T19:15:49.261Z,18.99
2019-02-19T19:18:19.005Z,18.98
2019-02-19T19:20:45.784Z,18.99
2019-02-19T19:23:13.758Z,19.01
2019-02-19T19:25:41.085Z,19.03
2019-02-19T19:28:08.431Z,19.02
2019-02-19T19:30:35.752Z,19.03
2019-02-19T19:33:03.127Z,19.01
2019-02-19T19:35:30.421Z,19.02
2019-02-19T19:37:58.051Z,19.02
2019-02-19T19:40:25.495Z,19.00
2019-02-19T19:42:52.766Z,19.03
2019-02-19T19:45:20.038Z,19.02
2019-02-19T19:47:47.294Z,19.03
2019-02-19T19:50:14.589Z,19.08
2019-02-19T19:52:41.834Z,19.05
2019-02-19T19:55:09.077Z,19.05
2019-02-19T19:57:36.346Z,19.12
2019-02-19T20:00:03.830Z,19.11
2019-02-19T20:02:31.059Z,19.09
2019-02-19T20:04:58.632Z,19.09
2019-02-19T20:07:25.835Z,19.09
2019-02-19T20:09:53.160Z,19.12
2019-02-19T20:12:20.609Z,19.13
2019-02-19T20:14:47.835Z,19.14
2019-02-19T20:17:15.386Z,19.12
2019-02-19T20:19:42.603Z,19.08
2019-02-19T20:22:09.800Z,19.08
2019-02-19T20:24:37.177Z,19.10
2019-02-19T20:27:04.478Z,19.14
2019-02-19T20:29:31.700Z,19.16
2019-02-19T20:32:00.156Z,19.13
2019-02-19T20:34:27.341Z,19.13
2019-02-19T20:36:54.551Z,19.11
2019-02-19T20:39:21.855Z,19.11
2019-02-19T20:41:49.238Z,19.08
2019-02-19T20:44:16.673Z,19.06
2019-02-19T20:46:43.985Z,19.06
2019-02-19T20:49:11.203Z,19.08
2019-02-19T20:51:38.434Z,19.10
2019-02-19T20:54:05.764Z,19.10
2019-02-19T20:56:33.061Z,19.07
2019-02-19T20:59:00.362Z,19.06
2019-02-19T21:01:27.533Z,19.05
2019-02-19T21:03:54.777Z,19.02
2019-02-19T21:06:21.964Z,19.01
2019-02-19T21:08:49.288Z,18.99
2019-02-19T21:11:16.493Z,19.03
2019-02-19T21:13:43.825Z,19.03
2019-02-19T21:16:11.111Z,19.00
2019-02-19T21:18:38.294Z,18.99
2019-02-19T21:21:05.478Z,19.00
2019-02-19T21:23:32.756Z,19.01
2019-02-19T21:26:00.033Z,18.96
2019-02-19T21:28:27.208Z,18.96
2019-02-19T21:30:54.506Z,18.97
2019-02-19T21:33:21.947Z,18.96
2019-02-19T21:35:49.190Z,18.97
2019-02-19T21:38:16.425Z,18.99
2019-02-19T21:40:43.716Z,19.02
2019-02-19T21:43:11.044Z,18.98
2019-02-19T21:45:38.192Z,18.99
2019-02-19T21:48:05.401Z,18.97
2019-02-19T21:50:32.618Z,18.95
2019-02-19T21:52:59.925Z,18.96
2019-02-19T21:55:27.179Z,18.96
2019-02-19T21:57:54.576Z,18.96
2019-02-19T22:00:22.162Z,18.94
2019-02-19T22:02:49.484Z,18.97
2019-02-19T22:05:16.703Z,18.96
2019-02-19T22:07:43.930Z,18.97
2019-02-19T22:10:11.267Z,19.01
2019-02-19T22:12:38.626Z,19.04
2019-02-19T22:15:05.986Z,19.00
2019-02-19T22:17:33.236Z,18.99
2019-02-19T22:20:03.042Z,19.02
2019-02-19T22:22:31.645Z,19.00
2019-02-19T22:24:58.856Z,18.96
2019-02-19T22:27:26.201Z,18.95
2019-02-19T22:29:53.467Z,18.97
2019-02-19T22:32:20.707Z,18.97
2019-02-19T22:34:47.919Z,18.97
2019-02-19T22:37:15.127Z,18.95
2019-02-19T22:39:42.469Z,18.98
2019-02-19T22:42:09.767Z,18.95
2019-02-19T22:44:37.008Z,18.97
2019-02-19T22:47:04.232Z,18.95
2019-02-19T22:49:31.449Z,18.93
2019-02-19T22:51:58.616Z,18.92
2019-02-19T22:54:54.173Z,18.93
2019-02-19T22:57:21.425Z,18.93
2019-02-19T22:59:48.929Z,18.93
2019-02-19T23:02:21.285Z,18.92
2019-02-19T23:04:48.597Z,18.91
2019-02-19T23:07:15.828Z,18.90
2019-02-19T23:09:43.095Z,18.93
2019-02-19T23:12:11.548Z,18.96
2019-02-19T23:14:40.781Z,18.97
2019-02-19T23:17:10.628Z,18.98
2019-02-19T23:19:38.838Z,18.99
2019-02-19T23:22:06.339Z,18.98
2019-02-19T23:24:33.659Z,18.97
2019-02-19T23:27:00.930Z,18.96
2019-02-19T23:29:28.326Z,18.93
2019-02-19T23:31:55.530Z,18.94
2019-02-19T23:34:23.400Z,18.98
2019-02-19T23:37:01.644Z,19.00
2019-02-19T23:39:29.045Z,19.00
2019-02-19T23:41:56.361Z,19.00
2019-02-19T23:44:23.599Z,19.01
2019-02-19T23:46:50.861Z,18.98
2019-02-19T23:49:18.698Z,18.96
2019-02-19T23:51:45.958Z,18.94
2019-02-19T23:54:13.177Z,18.92
2019-02-19T23:56:40.465Z,18.91
2019-02-19T23:59:07.733Z,18.93
